Pagrindinis puslapis
METAR-TAF:

METAR-TAF

Oro uostai :

Barankilija, Kolumbija

platuma: 10-53N, ilguma: 074-47W, Aukštis: 14 m

Dabartinis oras

Ataskaita buvo paskelbta 58 minutes, ne 11:00 UTC
Vėjas 3 kt iš Šiaurės, svyruoja nuo Šiaurės Vakarų ir Šiaurės/Šiaurės Rytų
Temperatūra 25°C
Drėgmė 89%
Slėgis 1013 hPa
Matomumas: 8000 m
Mažai debesys ne aukštis 1200 ft
Rūkas kaimynystėje

METAR: SKBQ 281100Z 35003KT 320V020 8000 VCFG FEW012 25/23 A2990 NOSIG

Laikas: 06:58 (11:58 UTC)

Prognozė

Ataskaita buvo paskelbta 1 valandą ir 28 minutes, ne 10:30 UTC
Prognozė galioja nuo 28 metu 12 UTC su 29 metu 12 UTC
Vėjas 6 kt iš Šiaurės
Matomumas 10 km arba daugiau
Mažai debesys ne aukštis 1500 ft
Tapsmas
nuo 28 metu 15 UTC su 28 metu 17 UTC
Vėjas 12 kt iš Šiaurės

TAF: SKBQ 281030Z 2812/2912 36006KT 9999 FEW015 BECMG 2815/2817 01012KT TX33/2817 TN25/2910

Orai ataskaitas ir orų prognozės (METAR, TAF).

turimą stotys yra geltonos ir raudonos taškus žemėlapyje.

Perkelti pele per norėdami pamatyti stoties vardą.

Tada spustelėkite, norėdami matyti oro stebėjimo ir prognozės.

Norėdami pakeisti žemėlapį: spustelėkite ant žalios mygtukų su juodo kryžiaus žemyn,; žalią mygtuką su brūkšneliu, jei norite nutolinti; arba žalių rodyklių gretimoms žemėlapius.


METAR-TAF: